createdAt,value
2023-01-27T00:00:43.212Z,-1.01
2023-01-27T00:01:48.698Z,-1.01
2023-01-27T00:02:54.254Z,-1.00
2023-01-27T00:03:59.804Z,-1.01
2023-01-27T00:05:05.177Z,-1.01
2023-01-27T00:06:10.617Z,-1.03
2023-01-27T00:07:16.076Z,-1.03
2023-01-27T00:08:21.711Z,-1.02
2023-01-27T00:09:27.170Z,-1.02
2023-01-27T00:10:32.583Z,-1.02
2023-01-27T00:11:37.968Z,-1.02
2023-01-27T00:12:43.341Z,-1.01
2023-01-27T00:13:48.725Z,-1.01
2023-01-27T00:14:54.190Z,-1.01
2023-01-27T08:10:24.201Z,-1.76
2023-01-27T08:11:30.328Z,-1.67
2023-01-27T08:12:35.672Z,-1.59
2023-01-27T08:13:41.180Z,-1.52
2023-01-27T08:14:46.746Z,-1.44
2023-01-27T08:15:52.216Z,-1.38
2023-01-27T08:16:57.656Z,-1.31
2023-01-27T08:18:03.064Z,-1.23
2023-01-27T08:19:08.472Z,-1.17
2023-01-27T08:20:15.127Z,-1.11
2023-01-27T08:21:20.578Z,-1.05
2023-01-27T08:22:26.372Z,-0.96
2023-01-27T08:23:31.686Z,-0.91
2023-01-27T08:24:37.395Z,-0.87
2023-01-27T08:25:42.758Z,-0.82
2023-01-27T08:26:48.157Z,-0.75
2023-01-27T08:27:53.844Z,-0.68
2023-01-27T08:28:59.316Z,-0.59
2023-01-27T08:30:04.874Z,-0.54
2023-01-27T08:31:10.364Z,-0.52
2023-01-27T08:32:15.858Z,-0.51
2023-01-27T08:33:21.400Z,-0.49
2023-01-27T08:47:33.553Z,-1.13
2023-01-27T08:48:39.666Z,-1.12
2023-01-27T08:49:45.345Z,-1.10
2023-01-27T08:50:50.896Z,-1.07
2023-01-27T08:51:56.349Z,-1.02
2023-01-27T08:53:01.796Z,-0.97
2023-01-27T08:54:07.301Z,-0.90
2023-01-27T08:55:12.640Z,-0.82
2023-01-27T08:56:18.372Z,-0.73
2023-01-27T08:57:23.695Z,-0.65
2023-01-27T08:58:29.658Z,-0.60
2023-01-27T08:59:36.171Z,-0.55
2023-01-27T09:00:41.727Z,-0.51
2023-01-27T09:01:47.481Z,-0.48
2023-01-27T09:02:52.939Z,-0.46
2023-01-27T09:03:58.388Z,-0.43
2023-01-27T09:05:03.923Z,-0.39
2023-01-27T09:06:09.728Z,-0.36
2023-01-27T09:07:15.363Z,-0.33
2023-01-27T09:08:20.901Z,-0.31
2023-01-27T09:09:26.464Z,-0.31
2023-01-27T09:10:32.032Z,-0.31
2023-01-27T09:11:37.714Z,-0.31
2023-01-27T09:12:43.780Z,-0.30
2023-01-27T09:13:49.307Z,-0.30
2023-01-27T09:14:54.939Z,-0.31
2023-01-27T09:16:00.841Z,-0.32
2023-01-27T09:17:06.428Z,-0.32
2023-01-27T09:18:11.984Z,-0.32
2023-01-27T09:19:17.821Z,-0.32
2023-01-27T09:20:23.398Z,-0.33
2023-01-27T09:21:29.009Z,-0.34
2023-01-27T09:22:34.842Z,-0.34
2023-01-27T09:23:40.407Z,-0.33
2023-01-27T09:24:45.941Z,-0.31
2023-01-27T09:25:51.499Z,-0.28
2023-01-27T09:26:58.396Z,-0.24
2023-01-27T09:28:04.859Z,-0.21
2023-01-27T09:29:10.395Z,-0.18
2023-01-27T09:30:16.349Z,-0.15
2023-01-27T09:31:22.208Z,-0.12
2023-01-27T09:32:27.777Z,-0.07
2023-01-27T09:33:33.331Z,0.01
2023-01-27T09:34:39.105Z,0.05
2023-01-27T09:35:44.665Z,0.08
2023-01-27T09:36:50.214Z,0.09
2023-01-27T09:37:55.930Z,0.09
2023-01-27T09:39:01.467Z,0.14
2023-01-27T09:40:06.999Z,0.25
2023-01-27T09:41:12.550Z,0.34
2023-01-27T09:42:18.597Z,0.41
2023-01-27T09:43:24.122Z,0.45
2023-01-27T09:44:29.678Z,0.46
2023-01-27T09:45:35.202Z,0.49
2023-01-27T09:46:40.820Z,0.51
2023-01-27T09:47:46.329Z,0.49
2023-01-27T09:48:51.896Z,0.51
2023-01-27T09:49:57.453Z,0.53
2023-01-27T09:51:04.181Z,0.54
2023-01-27T09:52:09.736Z,0.55
2023-01-27T09:53:15.475Z,0.57
2023-01-27T09:54:21.443Z,0.58
2023-01-27T09:55:26.947Z,0.58
2023-01-27T09:56:32.489Z,0.57
2023-01-27T09:57:37.975Z,0.54
2023-01-27T09:58:43.492Z,0.52
2023-01-27T09:59:49.539Z,0.46
2023-01-27T10:00:55.060Z,0.41
2023-01-27T10:02:01.204Z,0.39
2023-01-27T10:03:06.694Z,0.39
2023-01-27T10:04:12.278Z,0.43
2023-01-27T10:05:18.017Z,0.50
2023-01-27T10:06:23.956Z,0.55
2023-01-27T10:07:29.505Z,0.57
2023-01-27T10:08:35.014Z,0.56
2023-01-27T10:09:41.168Z,0.58
2023-01-27T10:10:46.733Z,0.61
2023-01-27T10:11:52.208Z,0.61
2023-01-27T10:12:57.727Z,0.59
2023-01-27T10:14:03.329Z,0.54
2023-01-27T10:15:08.870Z,0.50
2023-01-27T10:16:14.449Z,0.45
2023-01-27T10:17:19.933Z,0.42
2023-01-27T10:18:25.445Z,0.40
2023-01-27T10:19:31.422Z,0.40
2023-01-27T10:20:36.940Z,0.42
2023-01-27T10:21:42.509Z,0.45
2023-01-27T10:22:48.238Z,0.48
2023-01-27T10:23:53.792Z,0.50
2023-01-27T10:24:59.533Z,0.51
2023-01-27T10:26:05.064Z,0.52
2023-01-27T10:27:10.631Z,0.54
2023-01-27T10:28:16.288Z,0.60
2023-01-27T10:29:21.809Z,0.71
2023-01-27T10:30:27.344Z,0.81
2023-01-27T10:31:33.000Z,0.87
2023-01-27T10:32:38.679Z,0.90
2023-01-27T10:33:44.349Z,1.02
2023-01-27T10:34:50.350Z,1.23
2023-01-27T10:35:56.361Z,1.42
2023-01-27T10:37:01.883Z,1.47
2023-01-27T10:38:07.432Z,1.47
2023-01-27T10:39:12.956Z,1.53
2023-01-27T10:40:18.461Z,1.58
2023-01-27T10:41:24.410Z,1.59
2023-01-27T10:42:29.924Z,1.65
2023-01-27T10:43:35.504Z,1.65
2023-01-27T10:44:41.421Z,1.62
2023-01-27T10:45:46.941Z,1.58
2023-01-27T10:46:52.473Z,1.51
2023-01-27T10:47:57.916Z,1.43
2023-01-27T10:49:03.567Z,1.32
2023-01-27T10:50:09.062Z,1.20
2023-01-27T10:51:14.853Z,1.10
2023-01-27T10:52:20.379Z,1.04
2023-01-27T10:53:25.892Z,0.99
2023-01-27T10:54:31.494Z,0.98
2023-01-27T10:55:37.039Z,0.96
2023-01-27T10:56:42.559Z,0.94
2023-01-27T10:57:48.087Z,0.93
2023-01-27T10:58:53.622Z,0.90
2023-01-27T11:00:21.900Z,0.84
2023-01-27T11:01:20.908Z,0.76
2023-01-27T11:02:22.050Z,0.68
2023-01-27T11:03:27.618Z,0.61
2023-01-27T11:04:33.272Z,0.63
2023-01-27T11:05:38.825Z,0.66
2023-01-27T11:06:45.061Z,0.70
2023-01-27T11:07:50.601Z,0.76
2023-01-27T11:08:56.142Z,0.80
2023-01-27T11:10:01.701Z,0.85
2023-01-27T11:11:07.240Z,0.91
2023-01-27T11:12:12.774Z,0.99
2023-01-27T11:13:18.309Z,1.09
2023-01-27T11:14:23.831Z,1.19
2023-01-27T11:15:29.659Z,1.34
2023-01-27T11:16:35.784Z,1.44
2023-01-27T11:35:27.862Z,0.67
2023-01-27T16:20:06.277Z,-1.72
2023-01-27T16:21:11.824Z,-1.68
2023-01-27T16:22:17.750Z,-1.64
2023-01-27T16:23:23.482Z,-1.61
2023-01-27T16:24:29.081Z,-1.56
2023-01-27T16:25:34.557Z,-1.50
2023-01-27T16:26:39.965Z,-1.44
2023-01-27T16:27:45.396Z,-1.39
2023-01-27T16:28:50.730Z,-1.32
2023-01-27T16:29:56.051Z,-1.26
2023-01-27T16:31:01.389Z,-1.21
2023-01-27T16:32:06.859Z,-1.17
2023-01-27T16:33:12.566Z,-1.12
2023-01-27T16:34:18.094Z,-1.10
2023-01-27T16:35:23.582Z,-1.07
2023-01-27T16:36:29.062Z,-1.04
2023-01-27T16:37:34.570Z,-1.00
2023-01-27T16:38:40.203Z,-0.98
2023-01-27T16:39:45.660Z,-0.97
2023-01-27T16:40:51.176Z,-0.94
2023-01-27T16:41:56.691Z,-0.92
2023-01-27T16:43:02.291Z,-0.89
2023-01-27T16:44:08.497Z,-0.88
2023-01-27T16:45:14.238Z,-0.86
2023-01-27T16:46:20.575Z,-0.85
2023-01-27T16:47:26.135Z,-0.84
2023-01-27T16:48:32.058Z,-0.82
2023-01-27T16:49:38.064Z,-0.81
2023-01-27T16:50:44.071Z,-0.80
2023-01-27T16:51:50.083Z,-0.79
2023-01-27T16:52:56.097Z,-0.78
